Terminal Aerodrome Forecast
Issued by NWS

Home | Current Version | Previous Version | Text Only | Print | Product List | Glossary On
Versions: 1 2 3 4 5 6 7 8 9 10 11 12 13 14 15
000
FTUS46 KMTR 181100
TAFOAK
TAF
KOAK 181132Z 1812/1918 20010KT P6SM FEW009 SCT019 BKN040
      TEMPO 1812/1816 18010KT P6SM -RA BKN019 BKN025
     FM181600 24010KT P6SM VCSH SCT025 BKN050
     FM190400 24007KT P6SM VCSH BKN030
     FM190700 29005KT P6SM BKN015 BKN040
     FM191200 VRB03KT P6SM BKN015 BKN040=

USA.gov is the U.S. government's official web portal to all federal, state and local government web resources and services.